Terminal Aerodrome Forecast
Issued by NWS

Home | Current Version | Previous Version | Graphics & Text | Print | Product List | Glossary On
Versions: 1 2 3 4 5 6 7 8 9 10 11 12 13
000
FTUS43 KICT 232339
TAFCNU
TAF
KCNU 232339Z 2400/2424 32012KT P6SM OVC025
     FM240300 33014KT P6SM -RASN OVC015
     FM240900 33015G20KT 6SM -SN OVC015
     FM241600 32014G20KT P6SM SCT020 BKN030=

USA.gov is the U.S. government's official web portal to all federal, state and local government web resources and services.